sensor_id;sensor_type;location;lat;lon;timestamp;pressure;altitude;pressure_sealevel;temperature;humidity
7760;BME280;3924;48.830;9.262;2022-11-20T00:02:58;98117.59;;;5.49;91.12
7760;BME280;3924;48.830;9.262;2022-11-20T00:05:42;98115.97;;;5.54;91.04
7760;BME280;3924;48.830;9.262;2022-11-20T00:08:25;98125.63;;;5.55;91.54
7760;BME280;3924;48.830;9.262;2022-11-20T00:11:22;98123.22;;;5.53;90.92
7760;BME280;3924;48.830;9.262;2022-11-20T00:14:03;98120.25;;;5.55;91.55
7760;BME280;3924;48.830;9.262;2022-11-20T00:16:50;98120.00;;;5.56;91.12
7760;BME280;3924;48.830;9.262;2022-11-20T00:19:21;98121.34;;;5.54;90.84
7760;BME280;3924;48.830;9.262;2022-11-20T00:21:48;98120.25;;;5.55;90.87
7760;BME280;3924;48.830;9.262;2022-11-20T00:24:17;98117.31;;;5.56;91.33
7760;BME280;3924;48.830;9.262;2022-11-20T00:26:44;98115.72;;;5.50;90.90
7760;BME280;3924;48.830;9.262;2022-11-20T00:29:10;98114.09;;;5.44;91.15
7760;BME280;3924;48.830;9.262;2022-11-20T00:31:37;98116.50;;;5.45;91.31
7760;BME280;3924;48.830;9.262;2022-11-20T00:34:03;98100.94;;;5.42;90.97
7760;BME280;3924;48.830;9.262;2022-11-20T00:36:33;98111.94;;;5.46;91.27
7760;BME280;3924;48.830;9.262;2022-11-20T00:39:00;98113.53;;;5.47;91.57
7760;BME280;3924;48.830;9.262;2022-11-20T00:41:28;98114.09;;;5.49;91.41
7760;BME280;3924;48.830;9.262;2022-11-20T00:43:55;98107.66;;;5.50;91.59
7760;BME280;3924;48.830;9.262;2022-11-20T00:46:25;98114.63;;;5.51;91.19
7760;BME280;3924;48.830;9.262;2022-11-20T00:48:51;98113.53;;;5.42;91.24
7760;BME280;3924;48.830;9.262;2022-11-20T00:51:21;98113.56;;;5.32;91.66
7760;BME280;3924;48.830;9.262;2022-11-20T00:53:48;98120.53;;;5.28;91.50
7760;BME280;3924;48.830;9.262;2022-11-20T00:56:17;98120.56;;;5.22;91.22
7760;BME280;3924;48.830;9.262;2022-11-20T00:58:46;98121.63;;;5.21;91.44
7760;BME280;3924;48.830;9.262;2022-11-20T01:03:46;98115.72;;;5.30;91.46
7760;BME280;3924;48.830;9.262;2022-11-20T01:06:15;98119.47;;;5.34;91.75
7760;BME280;3924;48.830;9.262;2022-11-20T01:08:43;98122.16;;;5.39;91.37
7760;BME280;3924;48.830;9.262;2022-11-20T01:11:19;98122.69;;;5.41;91.41
7760;BME280;3924;48.830;9.262;2022-11-20T01:13:47;98117.59;;;5.39;91.77
7760;BME280;3924;48.830;9.262;2022-11-20T01:16:17;98121.34;;;5.38;91.27
7760;BME280;3924;48.830;9.262;2022-11-20T01:18:46;98125.13;;;5.37;91.33
7760;BME280;3924;48.830;9.262;2022-11-20T01:21:15;98129.69;;;5.37;91.24
7760;BME280;3924;48.830;9.262;2022-11-20T01:23:42;98133.47;;;5.36;91.41
7760;BME280;3924;48.830;9.262;2022-11-20T01:26:12;98133.47;;;5.36;91.38
7760;BME280;3924;48.830;9.262;2022-11-20T01:28:39;98133.47;;;5.36;91.29
7760;BME280;3924;48.830;9.262;2022-11-20T01:31:23;98140.44;;;5.37;91.87
7760;BME280;3924;48.830;9.262;2022-11-20T01:33:52;98145.53;;;5.33;91.73
7760;BME280;3924;48.830;9.262;2022-11-20T01:36:21;98142.31;;;5.31;91.45
7760;BME280;3924;48.830;9.262;2022-11-20T01:38:51;98147.41;;;5.28;91.73
7760;BME280;3924;48.830;9.262;2022-11-20T01:41:19;98144.19;;;5.26;91.64
7760;BME280;3924;48.830;9.262;2022-11-20T01:44:05;98138.81;;;5.26;91.61
7760;BME280;3924;48.830;9.262;2022-11-20T01:46:35;98145.78;;;5.27;92.30
7760;BME280;3924;48.830;9.262;2022-11-20T01:49:05;98140.97;;;5.29;91.58
7760;BME280;3924;48.830;9.262;2022-11-20T01:51:39;98130.22;;;5.29;91.62
7760;BME280;3924;48.830;9.262;2022-11-20T01:54:17;98135.34;;;5.30;91.53
7760;BME280;3924;48.830;9.262;2022-11-20T01:56:45;98125.38;;;5.31;91.67
7760;BME280;3924;48.830;9.262;2022-11-20T01:59:15;98132.09;;;5.33;91.81
7760;BME280;3924;48.830;9.262;2022-11-20T02:01:44;98121.91;;;5.35;91.65
7760;BME280;3924;48.830;9.262;2022-11-20T02:04:11;98122.44;;;5.37;91.81
7760;BME280;3924;48.830;9.262;2022-11-20T02:06:42;98120.53;;;5.38;91.60
7760;BME280;3924;48.830;9.262;2022-11-20T02:09:10;98121.59;;;5.42;91.94
7760;BME280;3924;48.830;9.262;2022-11-20T02:11:37;98130.75;;;5.41;91.81
7760;BME280;3924;48.830;9.262;2022-11-20T02:14:04;98138.81;;;5.41;91.68
7760;BME280;3924;48.830;9.262;2022-11-20T02:16:34;98135.31;;;5.40;91.64
7760;BME280;3924;48.830;9.262;2022-11-20T02:19:04;98132.34;;;5.42;91.85
7760;BME280;3924;48.830;9.262;2022-11-20T02:21:47;98138.53;;;5.47;91.93
7760;BME280;3924;48.830;9.262;2022-11-20T02:24:17;98140.97;;;5.54;91.85
7760;BME280;3924;48.830;9.262;2022-11-20T02:29:10;98130.72;;;5.61;91.74
7760;BME280;3924;48.830;9.262;2022-11-20T02:31:40;98144.47;;;5.65;91.28
7760;BME280;3924;48.830;9.262;2022-11-20T02:34:06;98135.03;;;5.67;91.40
7760;BME280;3924;48.830;9.262;2022-11-20T02:36:34;98135.84;;;5.68;91.56
7760;BME280;3924;48.830;9.262;2022-11-20T02:39:03;98127.50;;;5.69;91.46
7760;BME280;3924;48.830;9.262;2022-11-20T02:41:37;98129.13;;;5.70;91.48
7760;BME280;3924;48.830;9.262;2022-11-20T02:44:04;98128.03;;;5.71;91.09
7760;BME280;3924;48.830;9.262;2022-11-20T02:46:32;98126.16;;;5.72;91.32
7760;BME280;3924;48.830;9.262;2022-11-20T02:48:59;98133.94;;;5.73;91.45
7760;BME280;3924;48.830;9.262;2022-11-20T02:51:26;98133.94;;;5.73;91.24
7760;BME280;3924;48.830;9.262;2022-11-20T02:53:52;98128.84;;;5.77;91.66
7760;BME280;3924;48.830;9.262;2022-11-20T02:56:19;98121.59;;;5.78;91.33
7760;BME280;3924;48.830;9.262;2022-11-20T02:58:46;98128.56;;;5.79;91.12
7760;BME280;3924;48.830;9.262;2022-11-20T03:01:12;98130.97;;;5.80;91.20
7760;BME280;3924;48.830;9.262;2022-11-20T03:03:39;98126.41;;;5.81;91.44
7760;BME280;3924;48.830;9.262;2022-11-20T03:06:06;98124.25;;;5.83;91.49
7760;BME280;3924;48.830;9.262;2022-11-20T03:08:32;98122.34;;;5.83;91.50
7760;BME280;3924;48.830;9.262;2022-11-20T03:11:03;98128.28;;;5.85;91.40
7760;BME280;3924;48.830;9.262;2022-11-20T03:13:30;98131.78;;;5.86;91.17
7760;BME280;3924;48.830;9.262;2022-11-20T03:15:56;98128.81;;;5.87;90.73
7760;BME280;3924;48.830;9.262;2022-11-20T03:18:23;98115.38;;;5.87;91.13
7760;BME280;3924;48.830;9.262;2022-11-20T03:20:49;98117.78;;;5.89;91.60
7760;BME280;3924;48.830;9.262;2022-11-20T03:23:16;98121.28;;;5.89;91.23
7760;BME280;3924;48.830;9.262;2022-11-20T03:25:42;98126.66;;;5.89;91.32
7760;BME280;3924;48.830;9.262;2022-11-20T03:28:09;98118.88;;;5.88;90.79
7760;BME280;3924;48.830;9.262;2022-11-20T03:30:35;98113.47;;;5.88;91.26
7760;BME280;3924;48.830;9.262;2022-11-20T03:33:01;98118.34;;;5.86;91.21
7760;BME280;3924;48.830;9.262;2022-11-20T03:35:28;98107.84;;;5.84;91.15
7760;BME280;3924;48.830;9.262;2022-11-20T03:37:54;98110.78;;;5.83;91.18
7760;BME280;3924;48.830;9.262;2022-11-20T03:40:21;98109.47;;;5.85;90.60
7760;BME280;3924;48.830;9.262;2022-11-20T03:42:47;98113.47;;;5.83;90.90
7760;BME280;3924;48.830;9.262;2022-11-20T03:45:16;98109.19;;;5.82;91.40
7760;BME280;3924;48.830;9.262;2022-11-20T03:47:43;98112.97;;;5.81;91.38
7760;BME280;3924;48.830;9.262;2022-11-20T03:50:12;98107.59;;;5.81;90.94
7760;BME280;3924;48.830;9.262;2022-11-20T03:52:39;98105.41;;;5.83;90.87
7760;BME280;3924;48.830;9.262;2022-11-20T03:55:07;98115.38;;;5.82;91.54
7760;BME280;3924;48.830;9.262;2022-11-20T03:57:33;98108.66;;;5.85;90.91
7760;BME280;3924;48.830;9.262;2022-11-20T04:00:00;98109.19;;;5.87;90.71
7760;BME280;3924;48.830;9.262;2022-11-20T04:02:26;98110.25;;;5.86;90.81
7760;BME280;3924;48.830;9.262;2022-11-20T04:04:52;98106.78;;;5.85;91.00
7760;BME280;3924;48.830;9.262;2022-11-20T04:07:19;98113.25;;;5.84;90.71
7760;BME280;3924;48.830;9.262;2022-11-20T04:09:46;98117.81;;;5.84;91.17
7760;BME280;3924;48.830;9.262;2022-11-20T04:12:12;98116.97;;;5.83;91.25
7760;BME280;3924;48.830;9.262;2022-11-20T04:14:39;98114.84;;;5.85;91.07
7760;BME280;3924;48.830;9.262;2022-11-20T04:17:05;98110.25;;;5.86;90.83
7760;BME280;3924;48.830;9.262;2022-11-20T04:19:31;98103.28;;;5.85;90.71
7760;BME280;3924;48.830;9.262;2022-11-20T04:21:58;98108.09;;;5.88;90.80
7760;BME280;3924;48.830;9.262;2022-11-20T04:24:24;98103.53;;;5.88;91.07
7760;BME280;3924;48.830;9.262;2022-11-20T04:26:52;98101.38;;;5.90;90.67
7760;BME280;3924;48.830;9.262;2022-11-20T04:29:18;98108.41;;;5.91;91.25
7760;BME280;3924;48.830;9.262;2022-11-20T04:31:45;98103.81;;;5.92;90.82
7760;BME280;3924;48.830;9.262;2022-11-20T04:34:12;98096.84;;;5.91;91.00
7760;BME280;3924;48.830;9.262;2022-11-20T04:36:39;98104.31;;;5.89;90.82
7760;BME280;3924;48.830;9.262;2022-11-20T04:39:06;98106.78;;;5.85;90.72
7760;BME280;3924;48.830;9.262;2022-11-20T04:41:36;98092.25;;;5.81;90.70
7760;BME280;3924;48.830;9.262;2022-11-20T04:44:04;98099.28;;;5.77;90.56
7760;BME280;3924;48.830;9.262;2022-11-20T04:46:33;98106.53;;;5.76;91.04
7760;BME280;3924;48.830;9.262;2022-11-20T04:49:00;98104.38;;;5.73;90.74
7760;BME280;3924;48.830;9.262;2022-11-20T04:51:27;98099.28;;;5.72;91.07
7760;BME280;3924;48.830;9.262;2022-11-20T04:53:53;98099.28;;;5.72;91.10
7760;BME280;3924;48.830;9.262;2022-11-20T04:56:20;98105.19;;;5.74;90.90
7760;BME280;3924;48.830;9.262;2022-11-20T04:58:46;98091.72;;;5.74;90.96
7760;BME280;3924;48.830;9.262;2022-11-20T05:01:19;98093.63;;;5.73;91.25
7760;BME280;3924;48.830;9.262;2022-11-20T05:03:46;98095.50;;;5.73;91.02
7760;BME280;3924;48.830;9.262;2022-11-20T05:06:14;98099.28;;;5.72;90.72
7760;BME280;3924;48.830;9.262;2022-11-20T05:08:41;98093.63;;;5.73;90.70
7760;BME280;3924;48.830;9.262;2022-11-20T05:11:10;98094.69;;;5.72;90.77
7760;BME280;3924;48.830;9.262;2022-11-20T05:13:37;98089.31;;;5.72;90.44
7760;BME280;3924;48.830;9.262;2022-11-20T05:16:06;98088.75;;;5.75;90.58
7760;BME280;3924;48.830;9.262;2022-11-20T05:18:34;98090.41;;;5.76;90.87
7760;BME280;3924;48.830;9.262;2022-11-20T05:21:01;98101.16;;;5.76;90.30
7760;BME280;3924;48.830;9.262;2022-11-20T05:23:29;98096.03;;;5.75;91.02
7760;BME280;3924;48.830;9.262;2022-11-20T05:25:56;98097.91;;;5.74;90.83
7760;BME280;3924;48.830;9.262;2022-11-20T05:28:25;98094.94;;;5.76;90.29
7760;BME280;3924;48.830;9.262;2022-11-20T05:30:51;98092.53;;;5.74;90.63
7760;BME280;3924;48.830;9.262;2022-11-20T05:33:18;98100.59;;;5.80;91.15
7760;BME280;3924;48.830;9.262;2022-11-20T05:35:45;98096.81;;;5.81;90.73
7760;BME280;3924;48.830;9.262;2022-11-20T05:38:11;98103.00;;;5.81;90.54
7760;BME280;3924;48.830;9.262;2022-11-20T05:40:38;98100.03;;;5.83;90.91
7760;BME280;3924;48.830;9.262;2022-11-20T05:43:04;98096.28;;;5.84;90.59
7760;BME280;3924;48.830;9.262;2022-11-20T05:45:31;98101.13;;;5.82;90.34
7760;BME280;3924;48.830;9.262;2022-11-20T05:47:59;98103.53;;;5.83;90.44
7760;BME280;3924;48.830;9.262;2022-11-20T05:50:29;98098.69;;;5.85;90.23
7760;BME280;3924;48.830;9.262;2022-11-20T05:53:00;98097.34;;;5.88;90.31
7760;BME280;3924;48.830;9.262;2022-11-20T05:55:27;98098.94;;;5.89;90.08
7760;BME280;3924;48.830;9.262;2022-11-20T05:57:54;98092.75;;;5.88;90.67
7760;BME280;3924;48.830;9.262;2022-11-20T06:00:22;98092.75;;;5.88;90.08
7760;BME280;3924;48.830;9.262;2022-11-20T06:02:48;98092.75;;;5.88;90.56
7760;BME280;3924;48.830;9.262;2022-11-20T06:05:15;98096.84;;;5.91;90.11
7760;BME280;3924;48.830;9.262;2022-11-20T06:07:42;98096.56;;;5.92;89.98
7760;BME280;3924;48.830;9.262;2022-11-20T06:10:09;98100.06;;;5.93;90.17
7760;BME280;3924;48.830;9.262;2022-11-20T06:12:36;98094.69;;;5.93;90.77
7760;BME280;3924;48.830;9.262;2022-11-20T06:15:03;98091.19;;;5.92;89.95
7760;BME280;3924;48.830;9.262;2022-11-20T06:17:30;98093.06;;;5.92;90.05
7760;BME280;3924;48.830;9.262;2022-11-20T06:19:57;98086.09;;;5.91;90.08
7760;BME280;3924;48.830;9.262;2022-11-20T06:22:23;98092.00;;;5.93;90.38
7760;BME280;3924;48.830;9.262;2022-11-20T06:24:50;98092.25;;;5.91;90.58
7760;BME280;3924;48.830;9.262;2022-11-20T06:27:17;98090.38;;;5.92;90.11
7760;BME280;3924;48.830;9.262;2022-11-20T06:29:43;98083.41;;;5.91;89.97
7760;BME280;3924;48.830;9.262;2022-11-20T06:32:10;98084.41;;;5.90;90.22
7760;BME280;3924;48.830;9.262;2022-11-20T06:34:38;98086.31;;;5.89;89.77
7760;BME280;3924;48.830;9.262;2022-11-20T06:37:05;98076.63;;;5.88;90.66
7760;BME280;3924;48.830;9.262;2022-11-20T06:39:31;98089.28;;;5.88;90.25
7760;BME280;3924;48.830;9.262;2022-11-20T06:41:58;98077.44;;;5.89;90.42
7760;BME280;3924;48.830;9.262;2022-11-20T06:44:25;98089.28;;;5.88;89.93
7760;BME280;3924;48.830;9.262;2022-11-20T06:46:52;98090.34;;;5.87;90.27
7760;BME280;3924;48.830;9.262;2022-11-20T06:49:18;98088.75;;;5.86;90.21
7760;BME280;3924;48.830;9.262;2022-11-20T06:51:45;98094.13;;;5.86;89.78
7760;BME280;3924;48.830;9.262;2022-11-20T06:54:12;98089.28;;;5.83;90.30
7760;BME280;3924;48.830;9.262;2022-11-20T06:56:39;98084.69;;;5.83;90.12
7760;BME280;3924;48.830;9.262;2022-11-20T06:59:06;98093.59;;;5.84;90.78
7760;BME280;3924;48.830;9.262;2022-11-20T07:01:33;98096.53;;;5.87;90.07
7760;BME280;3924;48.830;9.262;2022-11-20T07:04:01;98094.66;;;5.88;89.63
7760;BME280;3924;48.830;9.262;2022-11-20T07:06:28;98096.53;;;5.87;89.90
7760;BME280;3924;48.830;9.262;2022-11-20T07:08:55;98102.22;;;5.91;90.09
7760;BME280;3924;48.830;9.262;2022-11-20T07:11:21;98095.75;;;5.92;90.14
7760;BME280;3924;48.830;9.262;2022-11-20T07:13:48;98100.31;;;5.96;89.61
7760;BME280;3924;48.830;9.262;2022-11-20T07:16:14;98103.53;;;5.98;89.50
7760;BME280;3924;48.830;9.262;2022-11-20T07:18:41;98104.34;;;5.99;89.55
7760;BME280;3924;48.830;9.262;2022-11-20T07:21:15;98098.41;;;6.02;89.71
7760;BME280;3924;48.830;9.262;2022-11-20T07:23:41;98104.06;;;6.06;89.85
7760;BME280;3924;48.830;9.262;2022-11-20T07:26:10;98100.00;;;6.13;89.71
7760;BME280;3924;48.830;9.262;2022-11-20T07:28:37;98105.38;;;6.18;89.80
7760;BME280;3924;48.830;9.262;2022-11-20T07:31:05;98109.09;;;6.22;88.92
7760;BME280;3924;48.830;9.262;2022-11-20T07:33:33;98108.00;;;6.23;89.11
7760;BME280;3924;48.830;9.262;2022-11-20T07:36:00;98109.88;;;6.28;89.62
7760;BME280;3924;48.830;9.262;2022-11-20T07:38:27;98099.41;;;6.26;89.81
7760;BME280;3924;48.830;9.262;2022-11-20T07:40:58;98106.63;;;6.31;89.47
7760;BME280;3924;48.830;9.262;2022-11-20T07:43:24;98115.50;;;6.37;89.65
7760;BME280;3924;48.830;9.262;2022-11-20T07:45:51;98115.19;;;6.43;88.89
7760;BME280;3924;48.830;9.262;2022-11-20T07:48:18;98112.22;;;6.45;89.27
7760;BME280;3924;48.830;9.262;2022-11-20T07:50:44;98114.63;;;6.51;89.01
7760;BME280;3924;48.830;9.262;2022-11-20T07:53:12;98118.38;;;6.55;89.25
7760;BME280;3924;48.830;9.262;2022-11-20T07:55:40;98118.09;;;6.57;89.43
7760;BME280;3924;48.830;9.262;2022-11-20T07:58:06;98113.50;;;6.57;89.21
7760;BME280;3924;48.830;9.262;2022-11-20T08:00:33;98120.28;;;6.55;88.91
7760;BME280;3924;48.830;9.262;2022-11-20T08:03:03;98120.56;;;6.53;89.01
7760;BME280;3924;48.830;9.262;2022-11-20T08:05:30;98120.00;;;6.51;88.96
7760;BME280;3924;48.830;9.262;2022-11-20T08:07:56;98120.84;;;6.52;88.56
7760;BME280;3924;48.830;9.262;2022-11-20T08:10:23;98124.34;;;6.52;89.05
7760;BME280;3924;48.830;9.262;2022-11-20T08:12:51;98118.66;;;6.54;88.98
7760;BME280;3924;48.830;9.262;2022-11-20T08:15:38;98125.66;;;6.55;88.91
7760;BME280;3924;48.830;9.262;2022-11-20T08:18:08;98122.16;;;6.54;88.78
7760;BME280;3924;48.830;9.262;2022-11-20T08:20:54;98126.47;;;6.55;88.40
7760;BME280;3924;48.830;9.262;2022-11-20T08:23:22;98121.06;;;6.61;88.34
7760;BME280;3924;48.830;9.262;2022-11-20T08:25:49;98133.66;;;6.65;88.86
7760;BME280;3924;48.830;9.262;2022-11-20T08:28:17;98134.16;;;6.72;88.08
7760;BME280;3924;48.830;9.262;2022-11-20T08:30:48;98135.25;;;6.76;88.85
7760;BME280;3924;48.830;9.262;2022-11-20T08:33:15;98130.34;;;6.83;88.66
7760;BME280;3924;48.830;9.262;2022-11-20T08:35:43;98135.44;;;6.85;87.88
7760;BME280;3924;48.830;9.262;2022-11-20T08:38:10;98134.94;;;6.83;88.29
7760;BME280;3924;48.830;9.262;2022-11-20T08:40:37;98135.72;;;6.83;88.09
7760;BME280;3924;48.830;9.262;2022-11-20T08:43:03;98140.59;;;6.87;88.37
7760;BME280;3924;48.830;9.262;2022-11-20T08:45:30;98136.22;;;6.91;88.18
7760;BME280;3924;48.830;9.262;2022-11-20T08:48:01;98132.41;;;6.97;88.36
7760;BME280;3924;48.830;9.262;2022-11-20T08:50:28;98133.75;;;6.99;87.38
7760;BME280;3924;48.830;9.262;2022-11-20T08:53:07;98137.47;;;7.08;87.51
7760;BME280;3924;48.830;9.262;2022-11-20T08:55:33;98138.50;;;7.12;88.02
7760;BME280;3924;48.830;9.262;2022-11-20T08:58:06;98144.16;;;7.16;87.63
7760;BME280;3924;48.830;9.262;2022-11-20T09:00:33;98142.78;;;7.19;86.94
7760;BME280;3924;48.830;9.262;2022-11-20T09:03:01;98146.81;;;7.21;87.52
7760;BME280;3924;48.830;9.262;2022-11-20T09:05:28;98150.03;;;7.23;87.74
7760;BME280;3924;48.830;9.262;2022-11-20T09:07:59;98140.63;;;7.21;87.89
7760;BME280;3924;48.830;9.262;2022-11-20T09:10:26;98143.03;;;7.22;87.68
7760;BME280;3924;48.830;9.262;2022-11-20T09:12:53;98142.25;;;7.22;87.66
7760;BME280;3924;48.830;9.262;2022-11-20T09:15:21;98150.25;;;7.27;87.36
7760;BME280;3924;48.830;9.262;2022-11-20T09:17:59;98149.44;;;7.31;86.93
7760;BME280;3924;48.830;9.262;2022-11-20T09:20:28;98147.53;;;7.32;87.87
7760;BME280;3924;48.830;9.262;2022-11-20T09:22:57;98152.91;;;7.37;87.02
7760;BME280;3924;48.830;9.262;2022-11-20T09:25:24;98156.91;;;7.39;87.04
7760;BME280;3924;48.830;9.262;2022-11-20T09:27:57;98156.13;;;7.39;87.29
7760;BME280;3924;48.830;9.262;2022-11-20T09:30:25;98165.00;;;7.39;87.48
7760;BME280;3924;48.830;9.262;2022-11-20T09:32:52;98159.63;;;7.39;87.29
7760;BME280;3924;48.830;9.262;2022-11-20T09:35:19;98168.75;;;7.44;86.88
7760;BME280;3924;48.830;9.262;2022-11-20T09:37:46;98169.06;;;7.42;87.09
7760;BME280;3924;48.830;9.262;2022-11-20T09:40:28;98175.25;;;7.43;86.94
7760;BME280;3924;48.830;9.262;2022-11-20T09:43:03;98175.50;;;7.41;87.36
7760;BME280;3924;48.830;9.262;2022-11-20T09:48:30;98179.03;;;7.42;86.38
7760;BME280;3924;48.830;9.262;2022-11-20T09:56:41;98180.63;;;7.43;86.83
7760;BME280;3924;48.830;9.262;2022-11-20T09:59:36;98177.41;;;7.40;86.86
7760;BME280;3924;48.830;9.262;2022-11-20T10:02:05;98173.63;;;7.42;86.37
7760;BME280;3924;48.830;9.262;2022-11-20T10:04:39;98173.63;;;7.42;86.30
7760;BME280;3924;48.830;9.262;2022-11-20T10:09:59;98174.75;;;7.35;86.08
7760;BME280;3924;48.830;9.262;2022-11-20T10:21:52;98191.09;;;7.10;86.17
7760;BME280;3924;48.830;9.262;2022-11-20T10:30:12;98182.81;;;7.01;86.78
7760;BME280;3924;48.830;9.262;2022-11-20T10:32:42;98197.31;;;7.05;86.41
7760;BME280;3924;48.830;9.262;2022-11-20T10:35:23;98194.38;;;7.02;86.60
7760;BME280;3924;48.830;9.262;2022-11-20T10:37:56;98186.81;;;7.04;86.79
7760;BME280;3924;48.830;9.262;2022-11-20T10:40:44;98190.03;;;7.06;86.84
7760;BME280;3924;48.830;9.262;2022-11-20T10:43:26;98191.09;;;7.10;86.93
7760;BME280;3924;48.830;9.262;2022-11-20T10:46:08;98181.91;;;7.11;85.87
7760;BME280;3924;48.830;9.262;2022-11-20T10:48:37;98189.50;;;7.09;86.16
7760;BME280;3924;48.830;9.262;2022-11-20T10:51:15;98191.66;;;7.07;86.28
7760;BME280;3924;48.830;9.262;2022-11-20T10:53:55;98193.81;;;7.05;86.15
7760;BME280;3924;48.830;9.262;2022-11-20T10:56:37;98197.06;;;7.02;86.38
7760;BME280;3924;48.830;9.262;2022-11-20T11:01:54;98176.66;;;6.85;86.52
7760;BME280;3924;48.830;9.262;2022-11-20T11:04:38;98168.06;;;6.83;86.71
7760;BME280;3924;48.830;9.262;2022-11-20T11:07:11;98176.66;;;6.85;86.84
7760;BME280;3924;48.830;9.262;2022-11-20T11:09:43;98170.75;;;6.89;87.20
7760;BME280;3924;48.830;9.262;2022-11-20T11:12:12;98164.78;;;6.92;86.79
7760;BME280;3924;48.830;9.262;2022-11-20T11:14:47;98174.72;;;7.01;86.86
7760;BME280;3924;48.830;9.262;2022-11-20T11:17:23;98169.28;;;7.06;86.78
7760;BME280;3924;48.830;9.262;2022-11-20T11:20:01;98169.53;;;7.10;86.72
7760;BME280;3924;48.830;9.262;2022-11-20T11:22:31;98160.38;;;7.06;86.51
7760;BME280;3924;48.830;9.262;2022-11-20T11:24:59;98154.97;;;7.11;86.86
7760;BME280;3924;48.830;9.262;2022-11-20T11:27:28;98154.94;;;7.16;86.69
7760;BME280;3924;48.830;9.262;2022-11-20T11:30:10;98148.97;;;7.19;86.36
7760;BME280;3924;48.830;9.262;2022-11-20T11:32:39;98139.25;;;7.23;86.67
7760;BME280;3924;48.830;9.262;2022-11-20T11:35:07;98141.34;;;7.31;86.51
7760;BME280;3924;48.830;9.262;2022-11-20T11:37:45;98136.66;;;7.76;86.56
7760;BME280;3924;48.830;9.262;2022-11-20T11:40:15;98134.41;;;8.36;85.31
7760;BME280;3924;48.830;9.262;2022-11-20T11:43:04;98118.13;;;8.84;84.63
7760;BME280;3924;48.830;9.262;2022-11-20T11:45:31;98107.59;;;9.20;84.41
7760;BME280;3924;48.830;9.262;2022-11-20T11:48:00;98118.38;;;9.39;84.71
7760;BME280;3924;48.830;9.262;2022-11-20T11:50:29;98114.41;;;9.50;83.53
7760;BME280;3924;48.830;9.262;2022-11-20T11:55:56;98111.16;;;9.81;84.59
7760;BME280;3924;48.830;9.262;2022-11-20T11:58:33;98103.69;;;10.05;83.37
7760;BME280;3924;48.830;9.262;2022-11-20T12:04:17;98094.88;;;10.27;82.98
7760;BME280;3924;48.830;9.262;2022-11-20T12:06:52;98089.41;;;9.86;82.73
7760;BME280;3924;48.830;9.262;2022-11-20T12:09:24;98114.00;;;9.43;83.55
7760;BME280;3924;48.830;9.262;2022-11-20T12:12:04;98101.84;;;9.08;84.51
7760;BME280;3924;48.830;9.262;2022-11-20T12:14:39;98091.47;;;8.77;85.19
7760;BME280;3924;48.830;9.262;2022-11-20T12:17:12;98102.34;;;8.91;84.76
7760;BME280;3924;48.830;9.262;2022-11-20T12:19:40;98096.44;;;9.08;84.24
7760;BME280;3924;48.830;9.262;2022-11-20T12:25:17;98092.41;;;9.38;83.60
7760;BME280;3924;48.830;9.262;2022-11-20T12:30:19;98074.19;;;10.04;82.64
7760;BME280;3924;48.830;9.262;2022-11-20T12:41:46;98071.66;;;10.21;82.77
7760;BME280;3924;48.830;9.262;2022-11-20T12:45:14;98066.78;;;10.37;81.32
7760;BME280;3924;48.830;9.262;2022-11-20T12:53:45;98073.41;;;10.17;82.04
7760;BME280;3924;48.830;9.262;2022-11-20T12:56:37;98081.16;;;10.24;81.77
7760;BME280;3924;48.830;9.262;2022-11-20T13:01:52;98085.91;;;9.99;81.18
7760;BME280;3924;48.830;9.262;2022-11-20T13:07:14;98074.59;;;9.97;81.14
7760;BME280;3924;48.830;9.262;2022-11-20T13:09:46;98079.97;;;9.56;80.97
7760;BME280;3924;48.830;9.262;2022-11-20T13:12:23;98073.44;;;9.24;81.35
7760;BME280;3924;48.830;9.262;2022-11-20T13:15:14;98081.06;;;9.03;81.47
7760;BME280;3924;48.830;9.262;2022-11-20T13:18:01;98095.13;;;8.87;81.93
7760;BME280;3924;48.830;9.262;2022-11-20T13:20:32;98081.69;;;8.82;81.53
7760;BME280;3924;48.830;9.262;2022-11-20T13:23:00;98094.47;;;8.76;80.94
7760;BME280;3924;48.830;9.262;2022-11-20T13:25:37;98087.59;;;8.65;80.82
7760;BME280;3924;48.830;9.262;2022-11-20T13:28:28;98083.38;;;8.59;81.67
7760;BME280;3924;48.830;9.262;2022-11-20T13:30:57;98072.56;;;8.59;81.51
7760;BME280;3924;48.830;9.262;2022-11-20T13:33:35;98069.69;;;8.69;80.59
7760;BME280;3924;48.830;9.262;2022-11-20T13:38:44;98060.69;;;9.44;79.15
7760;BME280;3924;48.830;9.262;2022-11-20T13:41:25;98044.09;;;9.64;79.21
7760;BME280;3924;48.830;9.262;2022-11-20T13:44:12;98043.06;;;9.74;78.26
7760;BME280;3924;48.830;9.262;2022-11-20T13:46:42;98048.31;;;9.84;78.79
7760;BME280;3924;48.830;9.262;2022-11-20T13:49:47;98042.50;;;9.77;78.55
7760;BME280;3924;48.830;9.262;2022-11-20T14:00:16;98040.59;;;8.98;77.92
7760;BME280;3924;48.830;9.262;2022-11-20T14:05:36;98053.69;;;8.91;77.94
7760;BME280;3924;48.830;9.262;2022-11-20T14:08:13;98052.75;;;8.82;77.82
7760;BME280;3924;48.830;9.262;2022-11-20T14:10:40;98062.03;;;8.76;78.20
7760;BME280;3924;48.830;9.262;2022-11-20T14:13:15;98058.75;;;8.79;78.13
7760;BME280;3924;48.830;9.262;2022-11-20T14:15:43;98054.53;;;8.73;78.07
7760;BME280;3924;48.830;9.262;2022-11-20T14:18:18;98053.03;;;8.62;77.40
7760;BME280;3924;48.830;9.262;2022-11-20T14:20:45;98052.91;;;8.53;77.88
7760;BME280;3924;48.830;9.262;2022-11-20T14:23:26;98055.16;;;8.46;77.83
7760;BME280;3924;48.830;9.262;2022-11-20T14:25:55;98056.63;;;8.38;77.52
7760;BME280;3924;48.830;9.262;2022-11-20T14:28:30;98053.94;;;8.33;77.31
7760;BME280;3924;48.830;9.262;2022-11-20T14:30:57;98056.72;;;8.28;77.44
7760;BME280;3924;48.830;9.262;2022-11-20T14:33:26;98067.88;;;8.21;77.64
7760;BME280;3924;48.830;9.262;2022-11-20T14:35:57;98056.09;;;8.12;77.29
7760;BME280;3924;48.830;9.262;2022-11-20T14:38:26;98061.06;;;8.05;77.38
7760;BME280;3924;48.830;9.262;2022-11-20T14:40:54;98059.78;;;7.98;77.49
7760;BME280;3924;48.830;9.262;2022-11-20T14:43:23;98063.06;;;7.94;77.67
7760;BME280;3924;48.830;9.262;2022-11-20T14:45:59;98057.44;;;7.91;77.52
7760;BME280;3924;48.830;9.262;2022-11-20T14:48:30;98035.91;;;7.86;77.58
7760;BME280;3924;48.830;9.262;2022-11-20T14:50:58;98045.09;;;7.85;77.83
7760;BME280;3924;48.830;9.262;2022-11-20T14:53:25;98033.53;;;7.79;78.39
7760;BME280;3924;48.830;9.262;2022-11-20T14:55:59;98030.34;;;7.77;77.90
7760;BME280;3924;48.830;9.262;2022-11-20T14:58:32;98026.09;;;7.71;77.76
7760;BME280;3924;48.830;9.262;2022-11-20T15:01:05;98028.28;;;7.69;78.07
7760;BME280;3924;48.830;9.262;2022-11-20T15:03:34;98017.81;;;7.62;77.88
7760;BME280;3924;48.830;9.262;2022-11-20T15:06:05;98005.19;;;7.58;78.05
7760;BME280;3924;48.830;9.262;2022-11-20T15:08:32;98011.97;;;7.55;78.20
7760;BME280;3924;48.830;9.262;2022-11-20T15:10:58;98005.53;;;7.51;78.33